Fernwood, New York
Current Conditions -  °F | °C
As of 8:54 AM on Friday 24 Oct 2014 (Local Time) from KFZY Reporting Station
Clear Clear  
Wind Chill: 46°   Ceiling: Unl
Heat Index: 48°   Visibility: 10mi
Dew Point: 43°   Wind: 5mph
Humidity: 83%   Direction: 290°WNW
Pressure: 29.95"   Gusts: NA
Location:  43.5166°N, 76.1253°W
Report Text: KFZY 241254Z AUTO 29004KT 10SM CLR 09/06 A2995 RMK AO2 SLP144 T00890061
Loading
Personal Weather Stations






























Interactive Weather Map
Tropical Storm Tracking
New forecast layout! Learn more

10-Day Weather Forecast

Advertisements
Track Severe Weather on mobile